Time;durP1;ratioP1;P1;durP2;ratioP2;P2;SDS_P1;SDS_P2;PMS_P1;PMS_P2;Temp;Humidity;BMP_temperature;BMP_pressure;BME280_temperature;BME280_humidity;BME280_pressure;Samples;Min_cycle;Max_cycle;Signal;HPM_P1;HPM_P2
2023/12/16 00:00:08;;;;;;;8.50;7.57;;;;;;;;;;10288238;28;20069;-55
2023/12/16 00:05:11;;;;;;;6.28;5.65;;;;;;;;;;10286788;28;20076;-54
2023/12/16 00:10:10;;;;;;;7.40;6.68;;;;;;;;;;10286518;28;20075;-58
2023/12/16 00:15:10;;;;;;;8.65;6.38;;;;;;;;;;10289696;28;20072;-57
2023/12/16 00:20:09;;;;;;;7.85;7.05;;;;;;;;;;10282602;28;20120;-57
2023/12/16 00:25:09;;;;;;;8.75;7.85;;;;;;;;;;10286565;28;20564;-56
2023/12/16 00:30:08;;;;;;;8.98;8.10;;;;;;;;;;10286113;28;20076;-58
2023/12/16 00:35:08;;;;;;;8.70;7.47;;;;;;;;;;10285625;28;20106;-56
2023/12/16 00:40:07;;;;;;;6.90;6.25;;;;;;;;;;10287924;28;20077;-57
2023/12/16 00:45:07;;;;;;;8.20;7.40;;;;;;;;;;10283866;28;20081;-57
2023/12/16 00:50:08;;;;;;;8.85;7.70;;;;;;;;;;10281355;28;20098;-57
2023/12/16 00:55:07;;;;;;;8.30;7.32;;;;;;;;;;10284483;28;20079;-59
2023/12/16 01:00:07;;;;;;;6.47;5.88;;;;;;;;;;10292679;28;20171;-57
2023/12/16 01:05:05;;;;;;;7.32;6.63;;;;;;;;;;10294024;28;20072;-54
2023/12/16 01:10:04;;;;;;;8.18;6.63;;;;;;;;;;10292925;28;20474;-57
2023/12/16 01:15:03;;;;;;;6.90;6.25;;;;;;;;;;10294922;28;20462;-52
2023/12/16 01:20:03;;;;;;;7.28;6.57;;;;;;;;;;10293120;28;20084;-58
2023/12/16 01:25:01;;;;;;;7.90;7.00;;;;;;;;;;10293242;28;20500;-58
2023/12/16 01:30:00;;;;;;;8.55;7.75;;;;;;;;;;10299178;28;20127;-58
2023/12/16 01:34:58;;;;;;;7.72;6.80;;;;;;;;;;10312410;28;20365;-58
2023/12/16 01:39:59;;;;;;;8.05;7.25;;;;;;;;;;10317154;28;20057;-58
2023/12/16 01:44:57;;;;;;;8.13;6.63;;;;;;;;;;10312961;28;20064;-57
2023/12/16 01:49:55;;;;;;;8.45;7.65;;;;;;;;;;10319787;28;20119;-58
2023/12/16 01:54:54;;;;;;;10.18;8.63;;;;;;;;;;10290985;28;20068;-57
2023/12/16 01:59:54;;;;;;;7.47;6.70;;;;;;;;;;10293412;28;20068;-58
2023/12/16 02:04:52;;;;;;;8.38;6.88;;;;;;;;;;10292091;28;20095;-58
2023/12/16 02:09:50;;;;;;;7.25;6.55;;;;;;;;;;10287170;28;20064;-58
2023/12/16 02:14:48;;;;;;;9.15;7.22;;;;;;;;;;10291712;28;20072;-59
2023/12/16 02:19:48;;;;;;;7.43;6.68;;;;;;;;;;10286416;28;20494;-59
2023/12/16 02:24:49;;;;;;;8.15;7.05;;;;;;;;;;10290391;28;20076;-57
2023/12/16 02:29:47;;;;;;;9.73;7.35;;;;;;;;;;10323207;28;20076;-57
2023/12/16 02:34:46;;;;;;;9.05;7.28;;;;;;;;;;10292632;28;20462;-58
2023/12/16 02:39:44;;;;;;;9.10;8.05;;;;;;;;;;10290398;28;20076;-57
2023/12/16 02:44:43;;;;;;;9.10;8.15;;;;;;;;;;10290691;28;20068;-58
2023/12/16 02:49:42;;;;;;;7.45;6.70;;;;;;;;;;10287773;28;20618;-59
2023/12/16 02:54:40;;;;;;;10.23;8.70;;;;;;;;;;10291095;28;20064;-56
2023/12/16 02:59:39;;;;;;;9.27;8.38;;;;;;;;;;10290560;28;20084;-59
2023/12/16 03:04:38;;;;;;;8.95;8.05;;;;;;;;;;10290031;28;20499;-58
2023/12/16 03:09:36;;;;;;;10.95;9.70;;;;;;;;;;10287977;28;20469;-57
2023/12/16 03:14:37;;;;;;;9.93;8.93;;;;;;;;;;10286184;28;20076;-56
2023/12/16 03:19:36;;;;;;;11.23;8.77;;;;;;;;;;10285066;28;20072;-57
2023/12/16 03:24:35;;;;;;;10.48;8.38;;;;;;;;;;10289101;28;20068;-58
2023/12/16 03:29:34;;;;;;;9.05;8.15;;;;;;;;;;10287527;28;20072;-58
2023/12/16 03:34:32;;;;;;;9.75;8.02;;;;;;;;;;10286938;28;20478;-58
2023/12/16 03:39:31;;;;;;;11.80;10.23;;;;;;;;;;10288577;28;20080;-58
2023/12/16 03:44:30;;;;;;;19.90;11.98;;;;;;;;;;10284161;28;20075;-58
2023/12/16 03:49:29;;;;;;;8.40;7.60;;;;;;;;;;10288276;28;20493;-58
2023/12/16 03:54:28;;;;;;;9.77;8.77;;;;;;;;;;10288615;28;20439;-58
2023/12/16 03:59:26;;;;;;;11.52;9.75;;;;;;;;;;10286248;28;20079;-58
2023/12/16 04:04:26;;;;;;;10.25;9.05;;;;;;;;;;10287015;28;20142;-57
2023/12/16 04:09:24;;;;;;;11.98;9.48;;;;;;;;;;10285674;28;20077;-57
2023/12/16 04:14:23;;;;;;;11.23;9.75;;;;;;;;;;10287144;28;20044;-58
2023/12/16 04:19:21;;;;;;;11.90;9.55;;;;;;;;;;10288705;28;20076;-57
2023/12/16 04:24:21;;;;;;;10.90;9.32;;;;;;;;;;10288791;28;20064;-56
2023/12/16 04:29:19;;;;;;;12.05;9.98;;;;;;;;;;10282829;28;20090;-57
2023/12/16 04:34:17;;;;;;;11.07;9.50;;;;;;;;;;10286364;28;20079;-54
2023/12/16 04:39:15;;;;;;;13.85;9.90;;;;;;;;;;10285578;28;20079;-58
2023/12/16 04:44:15;;;;;;;15.05;10.75;;;;;;;;;;10286777;28;20064;-54
2023/12/16 04:49:13;;;;;;;19.02;13.13;;;;;;;;;;10285324;28;20073;-58
2023/12/16 04:54:11;;;;;;;15.93;12.20;;;;;;;;;;10285453;28;20491;-58
2023/12/16 04:59:10;;;;;;;11.07;9.95;;;;;;;;;;10286562;28;20064;-58
2023/12/16 05:04:09;;;;;;;20.90;12.68;;;;;;;;;;10285085;28;20079;-56
2023/12/16 05:09:12;;;;;;;13.32;10.90;;;;;;;;;;10286167;28;20076;-57
2023/12/16 05:14:10;;;;;;;17.92;13.93;;;;;;;;;;10287118;28;20065;-56
2023/12/16 05:19:10;;;;;;;19.13;14.38;;;;;;;;;;10285123;28;20092;-57
2023/12/16 05:24:08;;;;;;;13.05;10.80;;;;;;;;;;10285548;28;20575;-57
2023/12/16 05:29:06;;;;;;;12.27;10.23;;;;;;;;;;10285597;28;20080;-59
2023/12/16 05:34:04;;;;;;;15.82;12.30;;;;;;;;;;10287368;28;20076;-56
2023/12/16 05:39:05;;;;;;;12.00;10.73;;;;;;;;;;10285589;28;20037;-57
2023/12/16 05:44:03;;;;;;;19.88;13.15;;;;;;;;;;10285584;28;20088;-58
2023/12/16 05:49:01;;;;;;;14.00;10.20;;;;;;;;;;10292758;28;20076;-58
2023/12/16 05:54:00;;;;;;;19.27;14.35;;;;;;;;;;10294178;28;20513;-52
2023/12/16 05:58:59;;;;;;;12.20;10.70;;;;;;;;;;10292164;28;20075;-56
2023/12/16 06:03:57;;;;;;;16.80;15.00;;;;;;;;;;10289052;28;20069;-58
2023/12/16 06:08:56;;;;;;;15.50;13.90;;;;;;;;;;10290853;28;20073;-56
2023/12/16 06:13:54;;;;;;;16.35;13.93;;;;;;;;;;10291820;28;20072;-59
2023/12/16 06:18:53;;;;;;;15.70;12.05;;;;;;;;;;10292288;28;20076;-59
2023/12/16 06:23:52;;;;;;;13.65;10.23;;;;;;;;;;10291971;28;20064;-56
2023/12/16 06:28:50;;;;;;;12.98;10.52;;;;;;;;;;10292076;28;20094;-56
2023/12/16 06:33:48;;;;;;;12.70;10.85;;;;;;;;;;10290200;28;20092;-57
2023/12/16 06:38:48;;;;;;;10.50;9.43;;;;;;;;;;10291554;28;20087;-56
2023/12/16 06:43:46;;;;;;;9.75;8.38;;;;;;;;;;10291084;28;20072;-56
2023/12/16 06:48:45;;;;;;;9.52;8.15;;;;;;;;;;10291813;28;20092;-59
2023/12/16 06:53:43;;;;;;;10.00;9.00;;;;;;;;;;10288816;28;20462;-58
2023/12/16 06:58:43;;;;;;;11.30;8.43;;;;;;;;;;10289814;28;20081;-57
2023/12/16 07:03:41;;;;;;;8.95;8.00;;;;;;;;;;10290179;28;20443;-57
2023/12/16 07:08:43;;;;;;;7.15;6.45;;;;;;;;;;10289893;28;20514;-57
2023/12/16 07:13:42;;;;;;;8.68;7.47;;;;;;;;;;10289483;28;20510;-58
2023/12/16 07:18:41;;;;;;;8.35;7.55;;;;;;;;;;10286694;28;20102;-58
2023/12/16 07:23:39;;;;;;;10.57;8.52;;;;;;;;;;10287327;28;20072;-57
2023/12/16 07:28:37;;;;;;;12.57;8.70;;;;;;;;;;10289450;28;20065;-56
2023/12/16 07:33:38;;;;;;;29.70;20.17;;;;;;;;;;10287972;28;20096;-55
2023/12/16 07:38:36;;;;;;;9.73;8.57;;;;;;;;;;10289142;28;20163;-58
2023/12/16 07:43:34;;;;;;;9.98;7.75;;;;;;;;;;10288187;28;20071;-58
2023/12/16 07:48:33;;;;;;;8.77;7.60;;;;;;;;;;10285127;28;20088;-57
2023/12/16 07:53:32;;;;;;;11.23;9.65;;;;;;;;;;10287963;28;20045;-56
2023/12/16 07:58:31;;;;;;;9.48;7.70;;;;;;;;;;10286071;28;20072;-57
2023/12/16 08:03:30;;;;;;;9.80;8.77;;;;;;;;;;10287203;28;20078;-55
2023/12/16 08:08:29;;;;;;;9.65;7.70;;;;;;;;;;10289966;28;20167;-55
2023/12/16 08:13:29;;;;;;;11.02;8.82;;;;;;;;;;10288530;28;20087;-57
2023/12/16 08:18:27;;;;;;;14.05;12.75;;;;;;;;;;10283893;28;20489;-58
2023/12/16 08:23:25;;;;;;;8.95;7.43;;;;;;;;;;10263478;28;20528;-58
2023/12/16 08:28:24;;;;;;;9.55;8.52;;;;;;;;;;10291550;28;20127;-58
2023/12/16 08:33:24;;;;;;;13.13;11.90;;;;;;;;;;10288332;28;20134;-56
2023/12/16 08:38:23;;;;;;;10.50;8.40;;;;;;;;;;10284630;28;20168;-57
2023/12/16 08:43:22;;;;;;;17.60;14.88;;;;;;;;;;10286222;28;20069;-58
2023/12/16 08:48:20;;;;;;;9.90;9.00;;;;;;;;;;10281851;28;20080;-55
2023/12/16 08:53:20;;;;;;;13.30;8.25;;;;;;;;;;10280260;28;20075;-57
2023/12/16 08:58:19;;;;;;;9.93;8.00;;;;;;;;;;10284241;28;20072;-58
2023/12/16 09:03:17;;;;;;;7.50;6.20;;;;;;;;;;10286671;28;20072;-61
2023/12/16 09:08:15;;;;;;;10.43;7.13;;;;;;;;;;10285134;28;20072;-57
2023/12/16 09:13:15;;;;;;;7.70;6.65;;;;;;;;;;10284354;28;20079;-58
2023/12/16 09:18:13;;;;;;;9.27;7.97;;;;;;;;;;10290931;28;20049;-59
2023/12/16 09:23:11;;;;;;;10.48;8.93;;;;;;;;;;10294530;28;20076;-57
2023/12/16 09:28:10;;;;;;;8.98;8.05;;;;;;;;;;10291786;28;20455;-57
2023/12/16 09:33:09;;;;;;;7.90;7.05;;;;;;;;;;10282483;28;20140;-58
2023/12/16 09:38:08;;;;;;;10.75;8.75;;;;;;;;;;10275594;28;20059;-58
2023/12/16 09:43:15;;;;;;;10.05;7.28;;;;;;;;;;10279504;28;20158;-59
2023/12/16 09:48:16;;;;;;;12.05;9.52;;;;;;;;;;10288857;28;20818;-57
2023/12/16 09:53:15;;;;;;;10.93;8.95;;;;;;;;;;10307021;28;20466;-57
2023/12/16 09:58:15;;;;;;;9.00;8.05;;;;;;;;;;10306907;28;20127;-55
2023/12/16 10:03:13;;;;;;;14.02;11.73;;;;;;;;;;10309770;28;20126;-58
2023/12/16 10:08:13;;;;;;;10.45;9.27;;;;;;;;;;10277149;28;20052;-57
2023/12/16 10:13:11;;;;;;;11.98;10.55;;;;;;;;;;10289882;28;20772;-57
2023/12/16 10:18:10;;;;;;;14.02;11.65;;;;;;;;;;10273074;28;20416;-57
2023/12/16 10:23:10;;;;;;;9.00;7.93;;;;;;;;;;10306367;28;20160;-55
2023/12/16 10:28:11;;;;;;;9.55;8.32;;;;;;;;;;10301709;28;20080;-58
2023/12/16 10:33:09;;;;;;;10.10;8.00;;;;;;;;;;10289764;28;20084;-55
2023/12/16 10:38:08;;;;;;;9.98;8.90;;;;;;;;;;10292223;28;20518;-57
2023/12/16 10:43:08;;;;;;;12.43;10.32;;;;;;;;;;10289012;28;20501;-56
2023/12/16 10:48:10;;;;;;;11.50;7.85;;;;;;;;;;10285670;28;20535;-59
2023/12/16 10:53:14;;;;;;;15.27;12.40;;;;;;;;;;10287813;28;20053;-57
2023/12/16 10:58:17;;;;;;;17.40;13.60;;;;;;;;;;10268935;28;20047;-57
2023/12/16 11:03:21;;;;;;;13.18;11.10;;;;;;;;;;10271077;28;20426;-58
2023/12/16 11:08:20;;;;;;;10.23;7.90;;;;;;;;;;10269192;28;20055;-57
2023/12/16 11:13:18;;;;;;;25.42;20.30;;;;;;;;;;10269351;28;20060;-59
2023/12/16 11:18:20;;;;;;;15.48;10.35;;;;;;;;;;10269314;28;20043;-56
2023/12/16 11:23:19;;;;;;;26.65;16.75;;;;;;;;;;10284471;28;20143;-58
2023/12/16 11:28:18;;;;;;;24.27;18.90;;;;;;;;;;10292027;28;20626;-58
2023/12/16 11:33:18;;;;;;;17.17;12.88;;;;;;;;;;10281945;28;20070;-59
2023/12/16 11:38:34;;;;;;;26.90;16.05;;;;;;;;;;10274995;28;20615;-59
2023/12/16 11:43:49;;;;;;;21.90;17.27;;;;;;;;;;10282584;28;20349;-56
2023/12/16 11:48:49;;;;;;;27.37;21.97;;;;;;;;;;10280901;28;20079;-57
2023/12/16 11:53:47;;;;;;;38.78;28.13;;;;;;;;;;10284970;28;20123;-58
2023/12/16 11:58:46;;;;;;;19.27;15.60;;;;;;;;;;10283732;28;20064;-58
2023/12/16 12:03:44;;;;;;;25.42;20.50;;;;;;;;;;10284354;28;20072;-57
2023/12/16 12:08:46;;;;;;;28.05;18.23;;;;;;;;;;10286526;28;20072;-58
2023/12/16 12:13:44;;;;;;;19.55;13.60;;;;;;;;;;10287530;28;20094;-59
2023/12/16 12:18:42;;;;;;;33.17;20.52;;;;;;;;;;10281777;28;20068;-60
2023/12/16 12:23:42;;;;;;;45.53;28.52;;;;;;;;;;10287310;28;20072;-57
2023/12/16 12:28:41;;;;;;;26.10;18.80;;;;;;;;;;10286756;28;20065;-58
2023/12/16 12:33:40;;;;;;;19.73;13.32;;;;;;;;;;10289450;28;20080;-56
2023/12/16 12:38:38;;;;;;;12.85;10.13;;;;;;;;;;10287636;28;20475;-57
2023/12/16 12:43:36;;;;;;;64.43;38.75;;;;;;;;;;10286520;28;20064;-58
2023/12/16 12:48:37;;;;;;;13.05;10.25;;;;;;;;;;10286636;28;21066;-58
2023/12/16 12:53:36;;;;;;;36.33;25.75;;;;;;;;;;10288243;28;20075;-58
2023/12/16 12:58:35;;;;;;;33.35;23.02;;;;;;;;;;10294436;28;20044;-56
2023/12/16 13:03:33;;;;;;;15.88;12.40;;;;;;;;;;10293966;28;20073;-57
2023/12/16 13:08:34;;;;;;;45.65;24.35;;;;;;;;;;10290207;28;20068;-57
2023/12/16 13:13:32;;;;;;;26.15;18.45;;;;;;;;;;10289446;28;20077;-57
2023/12/16 13:18:31;;;;;;;23.17;17.60;;;;;;;;;;10293842;28;20065;-57
2023/12/16 13:23:29;;;;;;;21.25;14.80;;;;;;;;;;10294558;28;20072;-59
2023/12/16 13:28:29;;;;;;;25.35;20.27;;;;;;;;;;10292813;28;20072;-56
2023/12/16 13:33:28;;;;;;;14.93;11.35;;;;;;;;;;10293873;28;20076;-57
2023/12/16 13:38:26;;;;;;;25.13;20.90;;;;;;;;;;10292434;28;20079;-58
2023/12/16 13:43:24;;;;;;;63.83;48.17;;;;;;;;;;10292223;28;20081;-59
2023/12/16 13:48:24;;;;;;;43.08;33.08;;;;;;;;;;10293308;28;20069;-58
2023/12/16 13:53:22;;;;;;;38.55;25.88;;;;;;;;;;10292181;28;20076;-58
2023/12/16 13:58:22;;;;;;;21.75;15.05;;;;;;;;;;10293083;28;20079;-58
2023/12/16 14:03:20;;;;;;;29.55;18.83;;;;;;;;;;10293422;28;20091;-58
2023/12/16 14:08:20;;;;;;;43.08;24.88;;;;;;;;;;10292732;28;20087;-57
2023/12/16 14:13:18;;;;;;;20.52;15.00;;;;;;;;;;10293332;28;20479;-58
2023/12/16 14:18:16;;;;;;;24.67;14.32;;;;;;;;;;10291262;28;20068;-59
2023/12/16 14:23:14;;;;;;;38.50;20.67;;;;;;;;;;10287886;28;20069;-57
2023/12/16 14:28:14;;;;;;;45.35;22.65;;;;;;;;;;10290571;28;20079;-59
2023/12/16 14:33:12;;;;;;;46.08;24.20;;;;;;;;;;10292551;28;20087;-56
2023/12/16 14:38:12;;;;;;;82.90;42.33;;;;;;;;;;10291293;28;20057;-58
2023/12/16 14:43:10;;;;;;;65.95;37.10;;;;;;;;;;10288175;28;20086;-58
2023/12/16 14:48:10;;;;;;;60.65;34.45;;;;;;;;;;10291125;28;20076;-57
2023/12/16 14:53:08;;;;;;;49.17;28.08;;;;;;;;;;10290019;28;20072;-58
2023/12/16 14:58:06;;;;;;;32.40;24.33;;;;;;;;;;10290329;28;20072;-57
2023/12/16 15:03:07;;;;;;;55.70;38.05;;;;;;;;;;10289341;28;20071;-57
2023/12/16 15:08:07;;;;;;;75.78;54.30;;;;;;;;;;10289644;28;20462;-59
2023/12/16 15:13:05;;;;;;;49.53;32.70;;;;;;;;;;10284482;28;20064;-58
2023/12/16 15:18:07;;;;;;;56.35;38.55;;;;;;;;;;10290613;28;20083;-59
2023/12/16 15:23:06;;;;;;;40.00;24.58;;;;;;;;;;10288381;28;20071;-58
2023/12/16 15:28:05;;;;;;;41.00;27.38;;;;;;;;;;10288858;28;20076;-57
2023/12/16 15:33:03;;;;;;;45.97;27.98;;;;;;;;;;10288471;28;20111;-59
2023/12/16 15:38:02;;;;;;;81.00;54.17;;;;;;;;;;10284245;28;20071;-56
2023/12/16 15:43:02;;;;;;;46.67;33.40;;;;;;;;;;10288969;28;20068;-58
2023/12/16 15:48:01;;;;;;;47.95;33.33;;;;;;;;;;10288302;28;20071;-58
2023/12/16 15:52:59;;;;;;;69.85;58.50;;;;;;;;;;10286785;28;20076;-58
2023/12/16 15:57:58;;;;;;;65.00;47.60;;;;;;;;;;10286517;28;20091;-57
2023/12/16 16:02:59;;;;;;;37.58;27.33;;;;;;;;;;10288647;28;20072;-57
2023/12/16 16:07:58;;;;;;;70.60;49.38;;;;;;;;;;10287038;28;20473;-58
2023/12/16 16:12:57;;;;;;;82.88;56.28;;;;;;;;;;10286633;28;20087;-58
2023/12/16 16:17:56;;;;;;;107.25;55.75;;;;;;;;;;10282956;28;20083;-58
2023/12/16 16:22:56;;;;;;;85.30;48.53;;;;;;;;;;10287257;28;20083;-55
2023/12/16 16:27:54;;;;;;;67.70;43.60;;;;;;;;;;10285219;28;20068;-57
2023/12/16 16:32:52;;;;;;;45.13;31.55;;;;;;;;;;10286916;28;20084;-60
2023/12/16 16:37:51;;;;;;;34.28;27.00;;;;;;;;;;10286201;28;20094;-59
2023/12/16 16:42:50;;;;;;;36.65;26.48;;;;;;;;;;10286836;28;20085;-59
2023/12/16 16:47:48;;;;;;;44.08;28.73;;;;;;;;;;10286984;28;20072;-58
2023/12/16 16:52:47;;;;;;;47.60;34.90;;;;;;;;;;10286521;28;20080;-58
2023/12/16 16:57:45;;;;;;;83.53;51.45;;;;;;;;;;10283848;28;20083;-58
2023/12/16 17:02:45;;;;;;;38.58;27.17;;;;;;;;;;10286685;28;20079;-57
2023/12/16 17:07:45;;;;;;;43.55;32.45;;;;;;;;;;10286539;28;20067;-60
2023/12/16 17:12:44;;;;;;;30.50;23.65;;;;;;;;;;10286054;28;20077;-57
2023/12/16 17:17:42;;;;;;;38.00;27.63;;;;;;;;;;10285756;28;20550;-58
2023/12/16 17:22:42;;;;;;;39.63;27.70;;;;;;;;;;10288090;28;20873;-58
2023/12/16 17:27:40;;;;;;;26.38;18.30;;;;;;;;;;10287022;28;20088;-58
2023/12/16 17:32:39;;;;;;;24.60;18.15;;;;;;;;;;10288386;28;20088;-58
2023/12/16 17:37:38;;;;;;;62.67;41.05;;;;;;;;;;10287953;28;20057;-58
2023/12/16 17:42:37;;;;;;;48.78;35.58;;;;;;;;;;10288276;28;20079;-58
2023/12/16 17:47:36;;;;;;;33.60;24.02;;;;;;;;;;10292877;28;20092;-58
2023/12/16 17:52:35;;;;;;;29.48;23.13;;;;;;;;;;10291323;28;20076;-57
2023/12/16 17:57:33;;;;;;;64.13;44.58;;;;;;;;;;10293936;28;20072;-58
2023/12/16 18:02:33;;;;;;;18.48;14.52;;;;;;;;;;10292003;28;20090;-56
2023/12/16 18:07:32;;;;;;;19.65;14.70;;;;;;;;;;10290922;28;20171;-57
2023/12/16 18:12:31;;;;;;;22.10;17.45;;;;;;;;;;10291629;28;20084;-59
2023/12/16 18:17:29;;;;;;;19.40;13.90;;;;;;;;;;10300232;28;20080;-58
2023/12/16 18:22:29;;;;;;;76.70;47.35;;;;;;;;;;10292752;28;20068;-58
2023/12/16 18:27:27;;;;;;;63.85;44.75;;;;;;;;;;10291417;28;20072;-58
2023/12/16 18:32:25;;;;;;;28.92;22.40;;;;;;;;;;10292991;28;20107;-58
2023/12/16 18:37:24;;;;;;;16.52;12.50;;;;;;;;;;10290032;28;20060;-57
2023/12/16 18:42:23;;;;;;;21.27;15.00;;;;;;;;;;10290145;28;20079;-57
2023/12/16 18:47:24;;;;;;;17.63;15.15;;;;;;;;;;10286239;28;20520;-58
2023/12/16 18:52:22;;;;;;;17.85;13.43;;;;;;;;;;10285426;28;20073;-58
2023/12/16 18:57:20;;;;;;;18.35;13.80;;;;;;;;;;10292515;28;20491;-58
2023/12/16 19:02:22;;;;;;;13.02;11.25;;;;;;;;;;10289873;28;20435;-57
2023/12/16 19:07:24;;;;;;;9.93;8.90;;;;;;;;;;10290184;28;20510;-56
2023/12/16 19:12:22;;;;;;;24.38;18.23;;;;;;;;;;10289696;28;20103;-57
2023/12/16 19:17:22;;;;;;;29.77;19.52;;;;;;;;;;10288986;28;20063;-57
2023/12/16 19:22:20;;;;;;;13.77;10.15;;;;;;;;;;10285838;28;20110;-58
2023/12/16 19:27:18;;;;;;;16.58;14.52;;;;;;;;;;10289397;28;20073;-56
2023/12/16 19:32:17;;;;;;;19.58;15.60;;;;;;;;;;10288368;28;20080;-57
2023/12/16 19:37:17;;;;;;;26.05;20.90;;;;;;;;;;10288086;28;20068;-58
2023/12/16 19:42:15;;;;;;;37.70;26.20;;;;;;;;;;10288847;28;20075;-57
2023/12/16 19:47:13;;;;;;;30.50;25.20;;;;;;;;;;10283914;28;20495;-58
2023/12/16 19:52:11;;;;;;;37.08;25.90;;;;;;;;;;10288011;28;20064;-57
2023/12/16 19:57:12;;;;;;;22.10;15.65;;;;;;;;;;10287744;28;20657;-57
2023/12/16 20:02:10;;;;;;;23.17;17.13;;;;;;;;;;10287043;28;20919;-57
2023/12/16 20:07:08;;;;;;;25.77;17.10;;;;;;;;;;10286250;28;20485;-58
2023/12/16 20:12:10;;;;;;;20.33;17.95;;;;;;;;;;10289034;28;20578;-56
2023/12/16 20:17:09;;;;;;;24.77;19.02;;;;;;;;;;10284432;28;20091;-58
2023/12/16 20:22:08;;;;;;;21.13;18.00;;;;;;;;;;10287019;28;20552;-59
2023/12/16 20:27:06;;;;;;;25.27;19.90;;;;;;;;;;10286635;28;20071;-59
2023/12/16 20:32:04;;;;;;;96.50;60.85;;;;;;;;;;10287395;28;20085;-55
2023/12/16 20:37:07;;;;;;;92.70;55.17;;;;;;;;;;10285986;28;20084;-58
2023/12/16 20:42:06;;;;;;;57.45;35.53;;;;;;;;;;10285484;28;20092;-58
2023/12/16 20:47:04;;;;;;;107.32;61.72;;;;;;;;;;10282685;28;20076;-58
2023/12/16 20:52:04;;;;;;;47.38;30.42;;;;;;;;;;10286376;28;20065;-57
2023/12/16 20:57:03;;;;;;;106.10;58.05;;;;;;;;;;10286097;28;20080;-57
2023/12/16 21:02:07;;;;;;;62.10;34.05;;;;;;;;;;10285438;28;20088;-57
2023/12/16 21:07:07;;;;;;;27.20;20.40;;;;;;;;;;10281309;28;20069;-57
2023/12/16 21:12:05;;;;;;;28.75;20.35;;;;;;;;;;10288007;28;20069;-59
2023/12/16 21:17:03;;;;;;;17.63;14.77;;;;;;;;;;10293211;28;20099;-58
2023/12/16 21:22:02;;;;;;;23.98;15.68;;;;;;;;;;10292891;28;20083;-57
2023/12/16 21:27:01;;;;;;;16.40;13.85;;;;;;;;;;10285106;28;20424;-57
2023/12/16 21:32:02;;;;;;;26.27;16.65;;;;;;;;;;10301001;28;20091;-57
2023/12/16 21:37:00;;;;;;;15.80;11.65;;;;;;;;;;10290199;28;20076;-57
2023/12/16 21:41:58;;;;;;;25.80;17.98;;;;;;;;;;10294332;28;20053;-57
2023/12/16 21:46:58;;;;;;;20.75;12.77;;;;;;;;;;10288183;28;20069;-57
2023/12/16 21:51:57;;;;;;;16.95;12.00;;;;;;;;;;10291356;28;20068;-58
2023/12/16 21:56:55;;;;;;;30.60;19.83;;;;;;;;;;10286280;28;20091;-56
2023/12/16 22:01:53;;;;;;;13.45;11.55;;;;;;;;;;10293021;28;20617;-56
2023/12/16 22:06:54;;;;;;;19.40;14.27;;;;;;;;;;10292249;28;20068;-57
2023/12/16 22:11:52;;;;;;;12.65;10.63;;;;;;;;;;10287328;28;20076;-58
2023/12/16 22:16:50;;;;;;;14.88;11.15;;;;;;;;;;10287576;28;20067;-58
2023/12/16 22:21:49;;;;;;;16.33;13.23;;;;;;;;;;10290727;28;20515;-58
2023/12/16 22:26:49;;;;;;;11.57;9.18;;;;;;;;;;10287089;28;20064;-53
2023/12/16 22:31:47;;;;;;;13.13;11.02;;;;;;;;;;10291080;28;20083;-57
2023/12/16 22:36:46;;;;;;;12.23;10.13;;;;;;;;;;10289508;28;20159;-55
2023/12/16 22:41:44;;;;;;;11.00;9.20;;;;;;;;;;10289847;28;20068;-57
2023/12/16 22:46:44;;;;;;;14.48;10.23;;;;;;;;;;10290499;28;20075;-57
2023/12/16 22:51:42;;;;;;;11.43;10.10;;;;;;;;;;10284301;28;20068;-56
2023/12/16 22:56:40;;;;;;;13.68;9.75;;;;;;;;;;10285911;28;20459;-57
2023/12/16 23:01:38;;;;;;;11.65;9.20;;;;;;;;;;10289455;28;20494;-58
2023/12/16 23:06:38;;;;;;;14.35;10.02;;;;;;;;;;10288672;28;20084;-59
2023/12/16 23:11:36;;;;;;;12.48;9.57;;;;;;;;;;10286465;28;20104;-56
2023/12/16 23:16:34;;;;;;;12.38;10.98;;;;;;;;;;10288274;28;20080;-57
2023/12/16 23:21:33;;;;;;;15.43;11.18;;;;;;;;;;10284395;28;20182;-57
2023/12/16 23:26:32;;;;;;;35.75;22.45;;;;;;;;;;10285600;28;20088;-58
2023/12/16 23:31:32;;;;;;;16.27;12.93;;;;;;;;;;10281544;28;20089;-57
2023/12/16 23:36:33;;;;;;;16.20;11.73;;;;;;;;;;10286889;28;20481;-58
2023/12/16 23:41:33;;;;;;;12.55;11.02;;;;;;;;;;10282418;28;20072;-57
2023/12/16 23:46:31;;;;;;;16.42;12.23;;;;;;;;;;10282880;28;20068;-57
2023/12/16 23:51:30;;;;;;;15.95;12.80;;;;;;;;;;10289623;28;20068;-55
2023/12/16 23:56:28;;;;;;;14.45;12.07;;;;;;;;;;10288358;28;20080;-57
